Time;durP1;ratioP1;P1;durP2;ratioP2;P2;SDS_P1;SDS_P2;PMS_P1;PMS_P2;Temp;Humidity;BMP_temperature;BMP_pressure;BME280_temperature;BME280_humidity;BME280_pressure;Samples;Min_cycle;Max_cycle;Signal;HPM_P1;HPM_P2
2021/12/17 00:04:50;;;;;;;70.07;28.33;;;-5.10;99.90;;;;;;5018318;28;20403;-71
2021/12/17 00:07:17;;;;;;;66.50;29.50;;;-5.50;99.90;;;;;;5017898;28;20407;-75
2021/12/17 00:09:44;;;;;;;92.63;32.97;;;-5.60;99.90;;;;;;5018164;28;20406;-70
2021/12/17 00:12:12;;;;;;;80.07;29.33;;;-5.50;99.90;;;;;;5016901;28;20405;-70
2021/12/17 00:14:41;;;;;;;61.90;26.90;;;-6.40;99.90;;;;;;5033479;28;21115;-73
2021/12/17 00:17:13;;;;;;;66.33;29.40;;;-5.70;99.90;;;;;;5017745;28;20403;-69
2021/12/17 00:50:16;;;;;;;43.73;26.93;;;-5.60;99.90;;;;;;5016077;28;20419;-70
2021/12/17 00:52:42;;;;;;;33.17;24.00;;;-5.90;99.90;;;;;;5017281;28;20413;-73
2021/12/17 00:55:08;;;;;;;43.77;25.07;;;-5.60;99.90;;;;;;5017138;28;20872;-79
2021/12/17 00:57:39;;;;;;;51.87;25.23;;;-5.30;99.90;;;;;;5017124;28;20180;-73
2021/12/17 01:00:18;;;;;;;77.33;28.07;;;-4.60;99.90;;;;;;5017003;28;20544;-72
2021/12/17 01:02:45;;;;;;;69.47;26.83;;;-4.30;99.90;;;;;;5017051;28;20427;-71
2021/12/17 01:05:18;;;;;;;81.33;28.50;;;-4.40;99.90;;;;;;5015802;28;20416;-74
2021/12/17 01:07:48;;;;;;;83.37;26.23;;;-4.70;99.90;;;;;;5016755;28;20500;-74
2021/12/17 01:10:18;;;;;;;89.23;27.33;;;-4.50;99.90;;;;;;5016865;28;20408;-81
2021/12/17 01:12:44;;;;;;;123.83;29.17;;;-5.40;99.90;;;;;;5016927;28;20406;-81
2021/12/17 01:15:12;;;;;;;95.77;28.27;;;-5.70;99.90;;;;;;5016858;28;20705;-74
2021/12/17 01:17:42;;;;;;;90.37;27.47;;;-5.80;99.90;;;;;;5016783;28;20696;-72
2021/12/17 01:25:13;;;;;;;88.50;24.53;;;-6.00;99.90;;;;;;5016994;28;20413;-81
2021/12/17 01:35:52;;;;;;;98.77;25.83;;;-5.60;99.90;;;;;;5016422;28;20774;-78
2021/12/17 01:41:45;;;;;;;112.53;26.03;;;-5.80;99.90;;;;;;5016385;28;20241;-81
2021/12/17 01:43:58;;;;;;;79.23;26.37;;;-5.70;99.90;;;;;;5015991;28;20413;-78
2021/12/17 01:46:31;;;;;;;96.07;27.73;;;-4.60;99.90;;;;;;5016247;28;20709;-81
2021/12/17 02:00:19;;;;;;;138.80;28.93;;;-4.50;99.90;;;;;;5016047;28;20448;-79
2021/12/17 02:02:52;;;;;;;60.77;23.20;;;-4.80;99.90;;;;;;5016047;28;20424;-74
2021/12/17 02:05:19;;;;;;;73.20;22.73;;;-4.40;99.90;;;;;;5016021;28;20398;-79
2021/12/17 02:07:47;;;;;;;85.13;24.57;;;-4.30;99.90;;;;;;5016222;28;20396;-79
2021/12/17 02:32:19;;;;;;;100.17;23.93;;;-5.40;99.90;;;;;;5015580;28;20395;-70
2021/12/17 02:37:31;;;;;;;109.27;25.03;;;-5.60;99.90;;;;;;5015859;28;20443;-71
2021/12/17 02:45:36;;;;;;;77.67;22.67;;;-5.70;99.90;;;;;;5015333;28;20424;-70
2021/12/17 02:48:17;;;;;;;92.00;24.73;;;-6.10;99.90;;;;;;5015652;28;20816;-70
2021/12/17 02:50:55;;;;;;;70.97;22.43;;;-5.70;99.90;;;;;;5015467;28;20881;-70
2021/12/17 02:53:23;;;;;;;79.67;21.67;;;-5.70;99.90;;;;;;5015345;28;20505;-70
2021/12/17 02:56:00;;;;;;;68.07;21.33;;;-5.40;99.90;;;;;;5015456;28;20420;-71
2021/12/17 02:58:28;;;;;;;89.00;20.93;;;-5.10;99.90;;;;;;5015491;28;20419;-71
2021/12/17 03:00:56;;;;;;;88.67;22.17;;;-5.30;99.90;;;;;;5015425;28;20447;-72
2021/12/17 03:03:26;;;;;;;87.43;21.27;;;-5.60;99.90;;;;;;5019179;28;20464;-72
2021/12/17 03:05:52;;;;;;;103.87;23.30;;;-6.20;99.90;;;;;;5019461;28;20466;-74
2021/12/17 03:08:19;;;;;;;99.03;21.07;;;-5.20;99.90;;;;;;5019165;28;20426;-70
2021/12/17 03:10:47;;;;;;;135.77;23.77;;;-4.90;99.90;;;;;;5019188;28;20397;-71
2021/12/17 03:13:15;;;;;;;134.43;23.40;;;-5.00;99.90;;;;;;5019296;28;20434;-70
2021/12/17 03:23:40;;;;;;;147.97;24.70;;;-4.90;99.90;;;;;;5019008;28;20183;-71
2021/12/17 03:26:21;;;;;;;126.97;23.50;;;-6.00;99.90;;;;;;5018810;28;20417;-71
2021/12/17 03:28:50;;;;;;;137.33;23.27;;;-6.30;99.90;;;;;;5018686;28;20463;-77
2021/12/17 03:31:17;;;;;;;111.40;24.53;;;-6.10;99.90;;;;;;5018673;28;20416;-80
2021/12/17 03:33:46;;;;;;;159.80;26.13;;;-6.50;99.90;;;;;;5018616;28;20704;-73
2021/12/17 03:36:14;;;;;;;147.17;22.80;;;-6.10;99.90;;;;;;5018508;28;20571;-81
2021/12/17 03:38:42;;;;;;;82.10;20.20;;;-5.80;99.90;;;;;;5018540;28;20416;-70
2021/12/17 03:41:20;;;;;;;93.77;22.60;;;-5.10;99.90;;;;;;5018683;28;20729;-81
2021/12/17 03:43:48;;;;;;;95.97;20.77;;;-4.50;99.90;;;;;;5018429;28;20394;-74
2021/12/17 03:46:15;;;;;;;77.03;23.90;;;-4.50;99.90;;;;;;5018403;28;20398;-80
2021/12/17 03:48:41;;;;;;;112.97;24.43;;;-4.40;99.90;;;;;;5017404;28;20411;-81
2021/12/17 03:51:17;;;;;;;106.23;21.73;;;-4.50;99.90;;;;;;5018358;28;20520;-70
2021/12/17 03:53:47;;;;;;;117.80;24.43;;;-5.00;99.90;;;;;;5018381;28;20564;-79
2021/12/17 03:56:13;;;;;;;117.17;23.83;;;-5.50;99.90;;;;;;5018216;28;20775;-73
2021/12/17 03:58:39;;;;;;;145.43;23.50;;;-5.60;99.90;;;;;;5017998;28;20413;-75
2021/12/17 04:01:05;;;;;;;215.43;27.80;;;-5.60;99.90;;;;;;5018257;28;20204;-81
2021/12/17 04:03:32;;;;;;;156.70;28.67;;;-5.90;99.90;;;;;;5018246;28;20171;-81
2021/12/17 04:05:59;;;;;;;123.70;24.33;;;-6.10;99.90;;;;;;5018142;28;20834;-71
2021/12/17 04:08:25;;;;;;;151.23;24.73;;;-5.90;99.90;;;;;;5018042;28;20459;-78
2021/12/17 04:10:53;;;;;;;136.13;24.47;;;-5.50;99.90;;;;;;5018058;28;20405;-75
2021/12/17 04:15:55;;;;;;;180.10;24.30;;;-5.30;99.90;;;;;;5018262;28;20926;-71
2021/12/17 04:18:21;;;;;;;151.63;21.80;;;-4.90;99.90;;;;;;5017781;28;20769;-72
2021/12/17 04:20:47;;;;;;;141.57;23.90;;;-4.80;99.90;;;;;;5017788;28;20485;-70
2021/12/17 04:23:14;;;;;;;146.40;24.90;;;-4.50;99.90;;;;;;5033133;28;20459;-71
2021/12/17 04:25:40;;;;;;;103.87;20.60;;;-4.40;99.90;;;;;;5017791;28;20165;-70
2021/12/17 04:28:06;;;;;;;129.23;24.37;;;-4.00;99.90;;;;;;5017275;28;20401;-71
2021/12/17 04:30:32;;;;;;;150.97;22.23;;;-4.50;99.90;;;;;;5016589;28;20186;-80
2021/12/17 04:32:59;;;;;;;120.90;21.90;;;-4.80;99.90;;;;;;5016516;28;20417;-72
2021/12/17 04:35:25;;;;;;;132.27;22.53;;;-5.00;99.90;;;;;;5017501;28;20201;-70
2021/12/17 04:37:51;;;;;;;115.80;22.20;;;-4.70;99.90;;;;;;5016433;28;20409;-71
2021/12/17 04:40:19;;;;;;;111.30;20.40;;;-5.00;99.90;;;;;;5016425;28;20808;-70
2021/12/17 04:43:00;;;;;;;113.03;23.80;;;-4.40;99.90;;;;;;5017157;28;20400;-72
2021/12/17 04:45:27;;;;;;;98.27;22.07;;;-5.30;99.90;;;;;;5017312;28;20716;-80
2021/12/17 04:58:50;;;;;;;132.70;23.83;;;-5.70;99.90;;;;;;5016886;28;20404;-76
2021/12/17 05:01:16;;;;;;;147.03;21.97;;;-5.40;99.90;;;;;;5015935;28;20459;-71
2021/12/17 05:03:42;;;;;;;114.37;24.27;;;-5.70;99.90;;;;;;5016937;28;20765;-71
2021/12/17 05:06:08;;;;;;;138.70;23.97;;;-5.40;99.90;;;;;;5016086;28;20450;-72
2021/12/17 05:08:34;;;;;;;167.20;23.77;;;-5.50;99.90;;;;;;5016893;28;20447;-71
2021/12/17 05:21:23;;;;;;;105.50;23.40;;;-4.40;99.90;;;;;;5016903;28;20561;-72
2021/12/17 05:23:51;;;;;;;90.67;23.50;;;-4.60;99.90;;;;;;5016907;28;20286;-71
2021/12/17 05:26:19;;;;;;;114.93;24.10;;;-4.90;99.90;;;;;;5016386;28;20832;-81
2021/12/17 05:28:46;;;;;;;97.93;25.13;;;-4.60;99.90;;;;;;5016678;28;20694;-79
2021/12/17 05:31:13;;;;;;;148.97;24.63;;;-4.60;99.90;;;;;;5016750;28;20402;-78
2021/12/17 05:33:38;;;;;;;116.27;22.73;;;-4.00;99.90;;;;;;5016500;28;20401;-77
2021/12/17 05:36:04;;;;;;;158.07;25.07;;;-4.70;99.90;;;;;;5016600;28;20848;-70
2021/12/17 05:38:30;;;;;;;108.13;21.93;;;-4.30;99.90;;;;;;5016441;28;20251;-75
2021/12/17 05:40:56;;;;;;;136.57;27.00;;;-4.70;99.90;;;;;;5016185;28;20608;-76
2021/12/17 05:43:22;;;;;;;120.43;22.20;;;-4.60;99.90;;;;;;5016298;28;20172;-75
2021/12/17 05:48:26;;;;;;;121.30;24.07;;;-4.30;99.90;;;;;;5016259;28;20551;-71
2021/12/17 05:50:57;;;;;;;103.90;21.70;;;-4.00;99.90;;;;;;5016336;28;20707;-80
2021/12/17 05:53:24;;;;;;;137.30;27.00;;;-4.30;99.90;;;;;;5015832;28;20415;-78
2021/12/17 05:55:50;;;;;;;122.43;25.10;;;-4.20;99.90;;;;;;5016222;28;20873;-81
2021/12/17 05:58:16;;;;;;;122.53;25.40;;;-4.60;99.90;;;;;;5016051;28;20409;-80
2021/12/17 06:00:44;;;;;;;110.77;22.80;;;-4.30;99.90;;;;;;5016129;28;20994;-71
2021/12/17 06:03:10;;;;;;;119.23;25.73;;;-4.90;99.90;;;;;;5016185;28;20406;-70
2021/12/17 06:05:37;;;;;;;129.43;24.47;;;-4.60;99.90;;;;;;5015914;28;20415;-72
2021/12/17 06:08:04;;;;;;;105.03;23.83;;;-4.80;99.90;;;;;;5031192;28;20395;-76
2021/12/17 06:10:30;;;;;;;124.57;23.10;;;-4.60;99.90;;;;;;5014755;28;20850;-72
2021/12/17 06:12:55;;;;;;;110.87;23.43;;;-4.60;99.90;;;;;;5016092;28;20405;-76
2021/12/17 06:15:22;;;;;;;179.27;26.00;;;-4.70;99.90;;;;;;5015988;28;20860;-71
2021/12/17 06:17:50;;;;;;;104.03;24.23;;;-4.90;99.90;;;;;;5015881;28;20193;-72
2021/12/17 06:20:19;;;;;;;115.83;23.37;;;-5.10;99.90;;;;;;5014671;28;20453;-77
2021/12/17 06:22:45;;;;;;;83.10;19.20;;;-5.20;99.90;;;;;;5014396;28;20425;-79
2021/12/17 06:25:12;;;;;;;142.23;24.00;;;-5.10;99.90;;;;;;5014774;28;20739;-71
2021/12/17 06:27:39;;;;;;;104.10;24.63;;;-4.70;99.90;;;;;;5015915;28;20412;-78
2021/12/17 06:30:08;;;;;;;98.83;22.00;;;-4.70;99.90;;;;;;5015856;28;20431;-78
2021/12/17 06:32:33;;;;;;;102.63;22.47;;;-4.40;99.90;;;;;;5015901;28;20421;-77
2021/12/17 06:34:59;;;;;;;143.60;24.60;;;-5.10;99.90;;;;;;5015503;28;20423;-72
2021/12/17 06:37:25;;;;;;;75.97;21.80;;;-5.00;99.90;;;;;;5017694;28;20183;-74
2021/12/17 06:39:51;;;;;;;62.87;21.70;;;-5.10;99.90;;;;;;5019563;28;20316;-78
2021/12/17 06:42:17;;;;;;;136.73;26.13;;;-5.20;99.90;;;;;;5019738;28;20193;-70
2021/12/17 06:44:45;;;;;;;113.90;23.60;;;-5.10;99.90;;;;;;5019674;28;20210;-72
2021/12/17 06:47:28;;;;;;;131.20;25.60;;;-5.10;99.90;;;;;;5019708;28;20409;-72
2021/12/17 06:54:38;;;;;;;173.20;26.57;;;-5.00;99.90;;;;;;5019295;28;20417;-70
2021/12/17 07:00:58;;;;;;;118.93;24.03;;;-5.00;99.90;;;;;;5015397;28;20752;-78
2021/12/17 07:06:29;;;;;;;159.53;22.97;;;-5.00;99.90;;;;;;5038256;28;20247;-71
2021/12/17 07:17:08;;;;;;;142.17;22.63;;;-4.90;99.90;;;;;;5037267;28;20504;-70
2021/12/17 07:17:24;;;;;;;66.87;21.13;;;-5.10;99.90;;;;;;5022289;28;20817;-70
2021/12/17 07:33:33;;;;;;;96.27;21.00;;;-3.90;99.90;;;;;;5038483;28;20463;-81
2021/12/17 07:36:07;;;;;;;132.20;23.73;;;-4.40;99.90;;;;;;5036271;28;20433;-78
2021/12/17 07:38:46;;;;;;;135.20;21.77;;;-4.40;99.90;;;;;;5037550;28;20499;-71
2021/12/17 07:41:12;;;;;;;104.83;19.60;;;-4.30;99.90;;;;;;5037012;28;20944;-79
2021/12/17 07:43:39;;;;;;;89.40;19.20;;;-4.60;99.90;;;;;;5037792;28;20421;-82
2021/12/17 07:46:10;;;;;;;93.33;23.40;;;-4.30;99.90;;;;;;5037564;28;20183;-74
2021/12/17 07:48:38;;;;;;;70.27;18.97;;;-4.30;99.90;;;;;;5036403;28;20483;-74
2021/12/17 07:51:07;;;;;;;76.10;18.70;;;-4.40;99.90;;;;;;5037136;28;20203;-83
2021/12/17 07:53:34;;;;;;;74.67;19.87;;;-4.50;99.90;;;;;;5037374;28;20440;-75
2021/12/17 07:56:02;;;;;;;67.17;19.73;;;-4.00;99.90;;;;;;5027276;28;20208;-79
2021/12/17 07:58:29;;;;;;;86.43;19.47;;;-4.30;99.90;;;;;;5025737;28;20408;-78
2021/12/17 08:00:55;;;;;;;59.33;18.77;;;-5.20;99.90;;;;;;5027542;28;20482;-77
2021/12/17 08:03:21;;;;;;;97.20;19.80;;;-4.00;99.90;;;;;;5026020;28;20413;-73
2021/12/17 08:05:47;;;;;;;67.20;18.97;;;-4.00;99.90;;;;;;5027611;28;20708;-80
2021/12/17 08:08:13;;;;;;;75.73;19.87;;;-6.10;99.90;;;;;;5027153;28;20761;-81
2021/12/17 08:10:40;;;;;;;71.10;19.83;;;-6.20;99.90;;;;;;5027422;28;20161;-80
2021/12/17 08:13:08;;;;;;;107.23;21.47;;;-5.90;99.90;;;;;;5036588;28;20187;-79
2021/12/17 08:15:43;;;;;;;88.80;21.97;;;-5.00;99.90;;;;;;5037164;28;20408;-79
2021/12/17 08:24:07;;;;;;;118.23;22.67;;;-5.30;99.90;;;;;;5036927;28;20411;-72
2021/12/17 08:26:38;;;;;;;81.17;20.30;;;-5.20;99.90;;;;;;5036285;28;20942;-81
2021/12/17 08:31:32;;;;;;;132.17;25.03;;;-5.30;99.90;;;;;;5032120;28;20398;-77
2021/12/17 08:33:57;;;;;;;108.57;25.63;;;-5.30;99.90;;;;;;5036962;28;20405;-83
2021/12/17 08:36:24;;;;;;;185.53;28.10;;;-4.40;99.90;;;;;;5036958;28;20672;-74
2021/12/17 08:38:50;;;;;;;112.33;23.23;;;-5.80;99.90;;;;;;5035845;28;20173;-83
2021/12/17 08:41:18;;;;;;;118.13;26.57;;;-5.60;99.90;;;;;;5036930;28;20230;-78
2021/12/17 08:43:44;;;;;;;108.67;24.93;;;-5.80;99.90;;;;;;5037068;28;20165;-73
2021/12/17 08:46:10;;;;;;;182.93;30.70;;;-4.00;99.90;;;;;;5036341;28;20173;-76
2021/12/17 08:48:36;;;;;;;121.50;28.83;;;-5.70;99.90;;;;;;5036105;28;20280;-72
2021/12/17 08:51:03;;;;;;;134.70;26.43;;;-5.50;99.90;;;;;;5036850;28;20267;-72
2021/12/17 08:53:28;;;;;;;157.63;28.67;;;-6.20;99.90;;;;;;5036238;28;20192;-72
2021/12/17 08:55:55;;;;;;;155.53;27.33;;;-3.40;99.90;;;;;;5036627;28;20170;-76
2021/12/17 08:58:20;;;;;;;102.57;24.53;;;-6.00;99.90;;;;;;5037756;28;20154;-70
2021/12/17 09:00:47;;;;;;;102.37;27.47;;;-5.90;99.90;;;;;;5035978;28;20196;-76
2021/12/17 09:03:13;;;;;;;68.07;23.33;;;-5.50;99.90;;;;;;5036238;28;20161;-75
2021/12/17 09:05:42;;;;;;;103.03;26.60;;;-5.80;99.90;;;;;;5036608;28;20173;-80
2021/12/17 09:08:09;;;;;;;140.37;30.33;;;-5.10;99.90;;;;;;5035534;28;20191;-75
2021/12/17 09:10:36;;;;;;;107.07;27.00;;;-5.60;99.90;;;;;;5035510;28;20404;-69
2021/12/17 09:13:02;;;;;;;98.00;28.07;;;-5.60;99.90;;;;;;5034625;28;20256;-73
2021/12/17 09:15:28;;;;;;;123.37;27.33;;;-4.40;99.90;;;;;;5035916;28;20183;-69
2021/12/17 09:17:54;;;;;;;93.93;26.53;;;-5.60;99.90;;;;;;5036159;28;20168;-74
2021/12/17 09:20:20;;;;;;;115.20;30.30;;;-5.00;99.90;;;;;;5036052;28;20254;-77
2021/12/17 09:22:46;;;;;;;136.93;30.13;;;-5.80;99.90;;;;;;5035852;28;20181;-73
2021/12/17 09:25:14;;;;;;;121.17;30.17;;;-5.40;99.90;;;;;;5032598;28;20600;-69
2021/12/17 09:27:40;;;;;;;105.80;29.40;;;-5.20;99.90;;;;;;5020659;28;20182;-70
2021/12/17 09:30:09;;;;;;;118.43;32.50;;;-5.50;99.90;;;;;;5027608;28;20203;-83
2021/12/17 09:32:35;;;;;;;104.53;29.60;;;-5.30;99.90;;;;;;5015524;28;20190;-72
2021/12/17 09:35:01;;;;;;;87.37;28.20;;;-5.20;99.90;;;;;;5015988;28;20251;-85
2021/12/17 09:37:27;;;;;;;97.20;31.00;;;-5.90;99.90;;;;;;5016782;28;20522;-79
2021/12/17 09:39:52;;;;;;;90.27;28.77;;;-4.70;99.90;;;;;;5016910;28;20589;-78
2021/12/17 09:42:18;;;;;;;105.00;27.83;;;-4.20;99.90;;;;;;5023519;28;20483;-78
2021/12/17 09:44:44;;;;;;;73.57;27.53;;;-5.10;99.90;;;;;;5031379;28;20178;-80
2021/12/17 09:47:09;;;;;;;96.27;32.70;;;-3.70;99.90;;;;;;5029749;28;20614;-78
2021/12/17 09:49:35;;;;;;;83.57;32.00;;;-4.40;99.90;;;;;;5034156;28;20484;-87
2021/12/17 09:52:01;;;;;;;83.43;31.27;;;-5.00;99.90;;;;;;5018347;28;20635;-74
2021/12/17 09:54:27;;;;;;;80.93;28.00;;;-5.00;99.90;;;;;;5036159;28;20568;-72
2021/12/17 09:56:53;;;;;;;80.03;31.13;;;-5.20;99.90;;;;;;5033793;28;20185;-73
2021/12/17 09:59:24;;;;;;;76.53;31.57;;;-4.80;99.90;;;;;;5022683;28;20177;-72
2021/12/17 10:01:49;;;;;;;71.03;28.57;;;-4.10;99.90;;;;;;5028123;28;20262;-72
2021/12/17 10:04:27;;;;;;;82.37;33.73;;;-5.00;99.90;;;;;;5033419;28;20200;-75
2021/12/17 10:07:13;;;;;;;96.90;31.47;;;-5.40;99.90;;;;;;5027588;28;20164;-72
2021/12/17 10:09:53;;;;;;;95.10;34.23;;;-4.60;99.90;;;;;;5019833;28;20595;-72
2021/12/17 10:12:24;;;;;;;82.57;34.33;;;-3.90;99.90;;;;;;5036007;28;20203;-75
2021/12/17 10:15:10;;;;;;;74.40;31.87;;;-4.10;99.90;;;;;;5035330;28;20240;-85
2021/12/17 10:17:54;;;;;;;74.47;31.73;;;-4.30;99.90;;;;;;5027727;28;20211;-73
2021/12/17 10:20:22;;;;;;;68.07;32.60;;;-4.30;99.90;;;;;;5014854;28;20553;-73
2021/12/17 10:22:59;;;;;;;79.97;36.00;;;-4.00;99.90;;;;;;5015873;28;20173;-75
2021/12/17 10:25:27;;;;;;;87.13;35.53;;;-4.30;99.90;;;;;;5034941;28;20177;-77
2021/12/17 10:27:59;;;;;;;83.50;36.47;;;-4.50;99.90;;;;;;5035331;28;20215;-75
2021/12/17 10:30:27;;;;;;;82.63;33.57;;;-4.60;99.90;;;;;;5029015;28;20588;-73
2021/12/17 10:32:56;;;;;;;77.03;34.80;;;-4.60;99.90;;;;;;5034091;28;20176;-75
2021/12/17 10:35:26;;;;;;;73.97;34.23;;;-4.10;99.90;;;;;;5035463;28;20263;-85
2021/12/17 10:38:00;;;;;;;77.87;30.47;;;-5.60;99.90;;;;;;5034814;28;20188;-80
2021/12/17 10:40:30;;;;;;;76.33;33.80;;;-5.40;99.90;;;;;;5034826;28;20202;-77
2021/12/17 10:43:08;;;;;;;72.37;30.57;;;-5.40;99.90;;;;;;5035283;28;20185;-83
2021/12/17 10:45:37;;;;;;;87.07;35.80;;;-4.70;99.90;;;;;;5033860;28;20195;-76
2021/12/17 10:48:26;;;;;;;71.13;32.70;;;-4.50;99.90;;;;;;5034818;28;20583;-78
2021/12/17 10:50:59;;;;;;;76.10;29.47;;;-4.60;99.90;;;;;;5035800;28;20192;-73
2021/12/17 10:53:25;;;;;;;82.90;31.23;;;-4.20;99.90;;;;;;5034739;28;20185;-81
2021/12/17 10:55:52;;;;;;;90.60;31.93;;;-4.60;99.90;;;;;;5034784;28;20185;-84
2021/12/17 10:58:18;;;;;;;91.30;32.23;;;-4.70;99.90;;;;;;5035437;28;20176;-81
2021/12/17 11:01:06;;;;;;;84.60;31.13;;;-4.10;99.90;;;;;;5034517;28;20292;-80
2021/12/17 11:03:41;;;;;;;75.27;31.67;;;-4.90;99.90;;;;;;5035600;28;20169;-73
2021/12/17 11:06:07;;;;;;;78.37;34.23;;;-4.80;99.90;;;;;;5025036;28;20275;-76
2021/12/17 11:08:37;;;;;;;78.53;34.30;;;-5.00;99.90;;;;;;5027897;28;20166;-76
2021/12/17 11:11:11;;;;;;;70.83;32.73;;;-4.80;99.90;;;;;;5036452;28;20188;-75
2021/12/17 11:13:58;;;;;;;76.13;33.67;;;-5.00;99.90;;;;;;5036869;28;20235;-81
2021/12/17 11:16:26;;;;;;;71.20;30.63;;;-4.70;99.90;;;;;;5035472;28;20264;-79
2021/12/17 11:18:57;;;;;;;70.07;34.87;;;-4.20;99.90;;;;;;5034113;28;20326;-78
2021/12/17 11:21:23;;;;;;;69.37;33.33;;;-2.10;99.90;;;;;;5033532;28;20604;-82
2021/12/17 11:23:50;;;;;;;75.27;34.30;;;-2.60;99.90;;;;;;5033130;28;20196;-83
2021/12/17 11:26:15;;;;;;;70.47;29.97;;;-3.80;99.90;;;;;;5039699;28;20168;-79
2021/12/17 11:28:46;;;;;;;68.70;30.37;;;-2.00;99.90;;;;;;5041271;28;20181;-71
2021/12/17 11:31:12;;;;;;;70.87;31.40;;;-3.90;99.90;;;;;;5041070;28;20258;-76
2021/12/17 11:33:39;;;;;;;62.57;30.17;;;-4.10;99.90;;;;;;5043047;28;20200;-72
2021/12/17 11:36:05;;;;;;;59.57;32.73;;;-4.60;99.90;;;;;;5038809;28;20471;-81
2021/12/17 11:38:50;;;;;;;65.00;31.33;;;-4.10;99.90;;;;;;5041651;28;20204;-83
2021/12/17 11:41:51;;;;;;;63.97;31.80;;;-4.80;99.90;;;;;;5041934;28;20228;-76
2021/12/17 11:44:19;;;;;;;64.97;30.10;;;-4.00;99.90;;;;;;5063882;28;20587;-89
2021/12/17 11:47:03;;;;;;;72.10;32.73;;;-3.90;99.90;;;;;;5053392;28;20172;-87
2021/12/17 11:49:34;;;;;;;60.67;28.77;;;-3.00;99.90;;;;;;5055004;28;20185;-84
2021/12/17 11:52:00;;;;;;;68.17;30.87;;;-3.80;99.90;;;;;;5050972;28;20167;-86
2021/12/17 11:54:34;;;;;;;76.20;35.40;;;-3.90;99.90;;;;;;5049377;28;20272;-86
2021/12/17 11:57:17;;;;;;;63.67;31.50;;;-3.00;99.90;;;;;;5047388;28;20190;-81
2021/12/17 11:59:45;;;;;;;68.93;34.70;;;-4.60;99.90;;;;;;5045809;28;20453;-84
2021/12/17 12:02:22;;;;;;;74.80;33.83;;;-4.50;99.90;;;;;;5050981;28;20196;-89
2021/12/17 12:04:55;;;;;;;58.80;28.17;;;-4.70;99.90;;;;;;5050671;28;20238;-84
2021/12/17 12:07:24;;;;;;;67.10;33.23;;;-4.30;99.90;;;;;;5042709;28;20181;-82
2021/12/17 12:10:09;;;;;;;73.00;32.50;;;-4.10;99.90;;;;;;5028488;28;20167;-75
2021/12/17 12:12:34;;;;;;;72.60;35.03;;;-4.20;99.90;;;;;;5019928;28;20181;-75
2021/12/17 12:15:20;;;;;;;64.77;31.37;;;-4.20;99.90;;;;;;5028819;28;20173;-73
2021/12/17 12:18:13;;;;;;;69.93;33.50;;;-4.00;99.90;;;;;;5022332;28;20574;-74
2021/12/17 12:23:32;;;;;;;69.23;31.87;;;-4.20;99.90;;;;;;5022452;28;20533;-74
2021/12/17 12:26:04;;;;;;;68.53;35.10;;;-4.50;99.90;;;;;;5021818;28;20178;-73
2021/12/17 12:28:45;;;;;;;66.30;33.37;;;-3.90;99.90;;;;;;5021648;28;20176;-74
2021/12/17 12:31:14;;;;;;;73.30;36.67;;;-4.20;99.90;;;;;;5027950;28;20185;-85
2021/12/17 12:34:06;;;;;;;70.13;32.07;;;-4.10;99.90;;;;;;5042373;28;20213;-86
2021/12/17 12:36:55;;;;;;;65.93;34.23;;;-3.90;99.90;;;;;;5043325;28;20177;-79
2021/12/17 12:39:26;;;;;;;61.43;30.80;;;-3.30;99.90;;;;;;5040160;28;20169;-85
2021/12/17 12:41:55;;;;;;;63.20;30.20;;;-3.20;99.90;;;;;;5039041;28;20201;-90
2021/12/17 12:44:41;;;;;;;69.60;34.43;;;-4.40;99.90;;;;;;5038282;28;20253;-83
2021/12/17 12:47:14;;;;;;;65.73;31.33;;;-4.10;99.90;;;;;;5036952;28;20199;-73
2021/12/17 12:49:47;;;;;;;55.03;30.13;;;-3.70;99.90;;;;;;5037479;28;20606;-74
2021/12/17 12:52:26;;;;;;;69.97;31.73;;;-3.50;99.90;;;;;;5037333;28;20174;-83
2021/12/17 12:54:54;;;;;;;66.17;30.87;;;-4.00;99.90;;;;;;5035918;28;20174;-83
2021/12/17 12:57:33;;;;;;;60.03;29.80;;;-3.70;99.90;;;;;;5037472;28;20178;-70
2021/12/17 13:00:12;;;;;;;67.33;29.20;;;-3.60;99.90;;;;;;5033910;28;20217;-70
2021/12/17 13:02:39;;;;;;;62.87;29.57;;;-3.90;99.90;;;;;;5035982;28;20205;-78
2021/12/17 13:05:07;;;;;;;67.80;31.47;;;-3.60;99.90;;;;;;5037119;28;20165;-69
2021/12/17 13:07:51;;;;;;;66.63;31.63;;;-3.60;99.90;;;;;;5036514;28;20186;-74
2021/12/17 13:10:17;;;;;;;68.10;31.33;;;-4.20;99.90;;;;;;5036702;28;20228;-83
2021/12/17 13:12:59;;;;;;;69.20;31.50;;;-3.00;99.90;;;;;;5038571;28;20175;-81
2021/12/17 13:23:56;;;;;;;57.93;26.90;;;-2.90;99.90;;;;;;5034122;28;20192;-84
2021/12/17 13:26:25;;;;;;;60.37;31.67;;;-3.40;99.90;;;;;;5036712;28;20191;-78
2021/12/17 13:29:01;;;;;;;62.20;30.67;;;-3.50;99.90;;;;;;5040318;28;20571;-73
2021/12/17 13:31:46;;;;;;;59.87;29.87;;;-3.20;99.90;;;;;;5036862;28;20209;-76
2021/12/17 13:34:13;;;;;;;58.80;28.63;;;-3.80;99.90;;;;;;5025960;28;20173;-73
2021/12/17 13:37:05;;;;;;;56.57;28.27;;;-3.30;99.90;;;;;;5030521;28;20485;-75
2021/12/17 13:39:49;;;;;;;55.70;28.33;;;-3.30;99.90;;;;;;5020237;28;20607;-75
2021/12/17 13:42:34;;;;;;;63.60;30.23;;;-3.10;99.90;;;;;;5025119;28;20211;-72
2021/12/17 13:45:01;;;;;;;51.40;27.00;;;-3.70;99.90;;;;;;5035530;28;20170;-81
2021/12/17 13:47:35;;;;;;;53.77;26.17;;;-3.40;99.90;;;;;;5035268;28;20294;-73
2021/12/17 13:50:21;;;;;;;53.47;28.30;;;-3.40;99.90;;;;;;5035039;28;20197;-74
2021/12/17 13:53:00;;;;;;;63.20;29.13;;;-3.40;99.90;;;;;;5035313;28;20182;-73
2021/12/17 13:55:28;;;;;;;53.90;28.77;;;-3.60;99.90;;;;;;5034902;28;20179;-73
2021/12/17 13:58:05;;;;;;;54.27;28.83;;;-3.40;99.90;;;;;;5035702;28;20253;-73
2021/12/17 14:00:43;;;;;;;59.03;27.60;;;-3.40;99.90;;;;;;5033155;28;20224;-70
2021/12/17 14:03:12;;;;;;;60.27;30.43;;;-3.00;99.90;;;;;;5016698;28;20186;-72
2021/12/17 14:05:45;;;;;;;57.13;28.53;;;-3.30;99.90;;;;;;5016340;28;20217;-72
2021/12/17 14:08:15;;;;;;;58.93;28.53;;;-3.20;99.90;;;;;;5032751;28;20168;-70
2021/12/17 14:10:42;;;;;;;62.70;28.33;;;-3.10;99.90;;;;;;5049170;28;20170;-78
2021/12/17 14:13:24;;;;;;;52.67;29.03;;;-3.80;99.90;;;;;;5035192;28;20584;-77
2021/12/17 14:15:52;;;;;;;56.10;30.70;;;-3.70;99.90;;;;;;5024205;28;20260;-72
2021/12/17 14:18:21;;;;;;;51.67;25.67;;;-3.50;99.90;;;;;;5029906;28;20272;-77
2021/12/17 14:20:55;;;;;;;62.30;30.50;;;-3.30;99.90;;;;;;5035419;28;20190;-83
2021/12/17 14:23:29;;;;;;;59.73;28.80;;;-3.30;99.90;;;;;;5036088;28;20177;-79
2021/12/17 14:26:06;;;;;;;65.40;29.83;;;-3.20;99.90;;;;;;5034552;28;20206;-73
2021/12/17 14:28:37;;;;;;;56.07;26.53;;;-3.00;99.90;;;;;;5034699;28;20546;-75
2021/12/17 14:31:09;;;;;;;66.43;31.10;;;-3.10;99.90;;;;;;5033995;28;20179;-73
2021/12/17 14:33:41;;;;;;;56.77;26.37;;;-3.20;99.90;;;;;;5035335;28;20176;-75
2021/12/17 14:36:25;;;;;;;57.17;26.40;;;-3.70;99.90;;;;;;5035164;28;20202;-84
2021/12/17 14:39:09;;;;;;;63.00;28.07;;;-3.00;99.90;;;;;;5033546;28;20587;-72
2021/12/17 14:41:49;;;;;;;55.23;25.70;;;-3.20;99.90;;;;;;5035123;28;20200;-75
2021/12/17 15:00:51;;;;;;;50.37;25.30;;;-2.30;99.90;;;;;;5037653;28;20205;-71
2021/12/17 15:06:10;;;;;;;55.33;27.97;;;-3.60;99.90;;;;;;5038070;28;20174;-72
2021/12/17 15:08:36;;;;;;;55.93;26.73;;;-3.10;99.90;;;;;;5037494;28;20181;-74
2021/12/17 15:11:09;;;;;;;54.90;26.13;;;-2.90;99.90;;;;;;5038928;28;20177;-77
2021/12/17 15:13:34;;;;;;;48.40;24.93;;;-3.10;99.90;;;;;;5036870;28;20183;-73
2021/12/17 15:16:02;;;;;;;56.47;29.47;;;-3.40;99.90;;;;;;5038271;28;20470;-74
2021/12/17 15:18:28;;;;;;;47.63;25.93;;;-3.20;99.90;;;;;;5038440;28;20180;-72
2021/12/17 15:20:56;;;;;;;57.87;27.27;;;-2.40;99.90;;;;;;5037188;28;20678;-74
2021/12/17 15:23:24;;;;;;;51.33;25.00;;;-2.40;99.90;;;;;;5038330;28;20174;-73
2021/12/17 15:25:51;;;;;;;43.47;23.57;;;-2.30;99.90;;;;;;5037740;28;20186;-71
2021/12/17 15:28:23;;;;;;;52.43;25.73;;;-2.80;99.90;;;;;;5037615;28;20303;-73
2021/12/17 15:30:53;;;;;;;50.20;25.27;;;-3.40;99.90;;;;;;5038262;28;20267;-72
2021/12/17 15:33:19;;;;;;;46.80;23.63;;;-2.70;99.90;;;;;;5038197;28;20166;-71
2021/12/17 15:35:46;;;;;;;51.10;26.67;;;-3.40;99.90;;;;;;5037594;28;20210;-80
2021/12/17 15:38:13;;;;;;;44.20;26.60;;;-1.80;99.90;;;;;;5038498;28;20180;-71
2021/12/17 15:40:41;;;;;;;51.47;26.97;;;-3.70;99.90;;;;;;5037468;28;20215;-72
2021/12/17 15:43:10;;;;;;;39.53;23.40;;;-3.80;99.90;;;;;;5034758;28;20262;-75
2021/12/17 15:45:40;;;;;;;44.63;24.40;;;-3.70;99.90;;;;;;5040351;28;20183;-72
2021/12/17 15:48:08;;;;;;;45.03;23.13;;;-3.90;99.90;;;;;;5040532;28;20154;-76
2021/12/17 15:50:34;;;;;;;41.80;24.17;;;-3.60;99.90;;;;;;5036006;28;20194;-78
2021/12/17 15:53:01;;;;;;;51.10;25.87;;;-3.60;99.90;;;;;;5035678;28;20897;-71
2021/12/17 15:55:29;;;;;;;43.07;22.77;;;-3.40;99.90;;;;;;5036300;28;20535;-82